Time;durP1;ratioP1;P1;durP2;ratioP2;P2;SDS_P1;SDS_P2;PMS_P1;PMS_P2;Temp;Humidity;BMP_temperature;BMP_pressure;BME280_temperature;BME280_humidity;BME280_pressure;Samples;Min_cycle;Max_cycle;Signal;HPM_P1;HPM_P2
2023/03/03 00:01:01;;;;;;;59.80;28.70;;;3.10;99.90;;;;;;5003950;28;20054;-80
2023/03/03 00:03:27;;;;;;;51.17;26.88;;;3.10;99.90;;;;;;5003522;28;20433;-80
2023/03/03 00:05:54;;;;;;;56.50;27.35;;;3.00;99.90;;;;;;5004597;28;20046;-80
2023/03/03 00:08:21;;;;;;;55.47;25.92;;;3.00;99.90;;;;;;5001980;28;20048;-80
2023/03/03 00:10:48;;;;;;;54.30;27.63;;;3.00;99.90;;;;;;5004983;28;20047;-79
2023/03/03 00:13:21;;;;;;;55.30;27.15;;;3.00;99.90;;;;;;5003010;28;20129;-80
2023/03/03 00:15:48;;;;;;;61.58;27.30;;;3.00;99.90;;;;;;5006769;28;20448;-80
2023/03/03 00:18:29;;;;;;;56.38;26.27;;;2.90;99.90;;;;;;5025183;28;20133;-79
2023/03/03 00:20:59;;;;;;;68.03;28.80;;;2.90;99.90;;;;;;5008018;28;20073;-80
2023/03/03 00:23:38;;;;;;;57.75;26.60;;;2.90;99.90;;;;;;5004417;28;20048;-79
2023/03/03 00:26:32;;;;;;;53.15;25.08;;;2.90;99.90;;;;;;5014877;28;20042;-80
2023/03/03 00:29:00;;;;;;;60.63;27.02;;;2.90;99.90;;;;;;5018472;28;20049;-79
2023/03/03 00:31:34;;;;;;;56.97;26.52;;;2.90;99.90;;;;;;5005081;28;20517;-80
2023/03/03 00:34:25;;;;;;;58.60;27.13;;;2.80;99.90;;;;;;5003583;28;20581;-80
2023/03/03 00:36:56;;;;;;;53.08;25.30;;;2.80;99.90;;;;;;5012402;28;20042;-79
2023/03/03 00:39:34;;;;;;;60.75;28.85;;;2.80;99.90;;;;;;4999199;28;20043;-80
2023/03/03 00:42:09;;;;;;;62.40;27.40;;;2.70;99.90;;;;;;5006850;28;20077;-80
2023/03/03 00:44:47;;;;;;;58.67;26.05;;;2.70;99.90;;;;;;5006848;28;20052;-80
2023/03/03 00:47:31;;;;;;;55.17;26.90;;;2.70;99.90;;;;;;5008881;28;20046;-79
2023/03/03 00:50:09;;;;;;;59.00;26.27;;;2.70;99.90;;;;;;5005421;28;20080;-80
2023/03/03 00:52:38;;;;;;;57.55;27.50;;;2.70;99.90;;;;;;5008268;28;20050;-79
2023/03/03 00:55:06;;;;;;;57.85;26.50;;;2.60;99.90;;;;;;5014859;28;20540;-80
2023/03/03 00:57:33;;;;;;;59.63;27.48;;;2.70;99.90;;;;;;5004904;28;20066;-80
2023/03/03 01:00:00;;;;;;;59.35;27.88;;;2.60;99.90;;;;;;4998985;28;20433;-80
2023/03/03 01:02:27;;;;;;;58.20;27.50;;;2.60;99.90;;;;;;5006937;28;20061;-79
2023/03/03 01:04:56;;;;;;;60.13;29.40;;;2.60;99.90;;;;;;5008645;28;20053;-80
2023/03/03 01:07:23;;;;;;;59.95;28.67;;;2.60;99.90;;;;;;5004813;28;20077;-80
2023/03/03 01:09:49;;;;;;;63.17;29.17;;;2.60;99.90;;;;;;5000466;28;20053;-79
2023/03/03 01:12:16;;;;;;;62.00;28.67;;;2.60;99.90;;;;;;5003019;28;20137;-80
2023/03/03 01:14:44;;;;;;;63.25;29.25;;;2.60;99.90;;;;;;5000763;28;20046;-80
2023/03/03 01:17:10;;;;;;;58.67;30.92;;;2.50;99.90;;;;;;5015439;28;20104;-80
2023/03/03 01:19:37;;;;;;;61.53;29.95;;;2.50;99.90;;;;;;5009284;28;20050;-80
2023/03/03 01:22:04;;;;;;;62.03;29.17;;;2.50;99.90;;;;;;5008009;28;20060;-79
2023/03/03 01:24:30;;;;;;;57.88;29.83;;;2.50;99.90;;;;;;5009725;28;20042;-79
2023/03/03 01:26:57;;;;;;;58.22;29.10;;;2.50;99.90;;;;;;5001118;28;20125;-80
2023/03/03 01:29:24;;;;;;;57.92;28.30;;;2.50;99.90;;;;;;5009616;28;20049;-79
2023/03/03 01:31:50;;;;;;;60.42;28.77;;;2.50;99.90;;;;;;5003325;28;20057;-80
2023/03/03 01:34:17;;;;;;;61.80;27.30;;;2.50;99.90;;;;;;5023400;28;20049;-79
2023/03/03 01:36:44;;;;;;;56.45;27.60;;;2.40;99.90;;;;;;5008262;28;20058;-79
2023/03/03 01:39:11;;;;;;;58.67;27.73;;;2.50;99.90;;;;;;5008207;28;20050;-80
2023/03/03 01:41:38;;;;;;;56.63;27.17;;;2.40;99.90;;;;;;5007773;28;20062;-80
2023/03/03 01:44:05;;;;;;;52.88;26.42;;;2.50;99.90;;;;;;5004815;28;20053;-79
2023/03/03 01:46:46;;;;;;;60.83;28.73;;;2.50;99.90;;;;;;5008109;28;20042;-79
2023/03/03 01:49:27;;;;;;;59.78;28.98;;;2.50;99.90;;;;;;5004376;28;20049;-79
2023/03/03 01:51:58;;;;;;;55.25;26.58;;;2.40;99.90;;;;;;5003463;28;20052;-80
2023/03/03 01:54:35;;;;;;;57.80;28.40;;;2.40;99.90;;;;;;5012902;28;20046;-80
2023/03/03 01:57:07;;;;;;;55.05;27.33;;;2.50;99.90;;;;;;5004405;28;20054;-80
2023/03/03 01:59:38;;;;;;;62.50;27.40;;;2.50;99.90;;;;;;5010502;28;20050;-80
2023/03/03 02:02:05;;;;;;;62.47;30.23;;;2.60;99.90;;;;;;5006819;28;20078;-79
2023/03/03 02:04:34;;;;;;;59.35;27.42;;;2.60;99.90;;;;;;5009033;28;20046;-80
2023/03/03 02:07:06;;;;;;;60.60;28.67;;;2.60;99.90;;;;;;5008943;28;20056;-80
2023/03/03 02:09:46;;;;;;;58.75;28.13;;;2.70;99.90;;;;;;5002116;28;20421;-80
2023/03/03 02:12:17;;;;;;;57.00;27.63;;;2.70;99.90;;;;;;5025526;28;20052;-80
2023/03/03 02:14:44;;;;;;;56.78;27.17;;;2.70;99.90;;;;;;5004916;28;20057;-80
2023/03/03 02:17:11;;;;;;;54.13;26.52;;;2.80;99.90;;;;;;5007372;28;20069;-80
2023/03/03 02:20:06;;;;;;;53.92;26.73;;;2.80;99.90;;;;;;5001668;28;20050;-80
2023/03/03 02:22:45;;;;;;;56.70;26.50;;;2.80;99.90;;;;;;5007754;28;20592;-80
2023/03/03 02:25:21;;;;;;;52.03;25.45;;;2.80;99.90;;;;;;5003173;28;20058;-80
2023/03/03 02:27:48;;;;;;;56.72;26.98;;;2.80;99.90;;;;;;5005912;28;20046;-80
2023/03/03 02:30:20;;;;;;;50.05;25.42;;;2.80;99.90;;;;;;5014501;28;20057;-81
2023/03/03 02:32:47;;;;;;;55.83;27.40;;;2.80;99.90;;;;;;5007930;28;20048;-80
2023/03/03 02:35:37;;;;;;;56.55;25.75;;;2.80;99.90;;;;;;5011525;28;20505;-81
2023/03/03 02:38:25;;;;;;;54.05;26.45;;;2.80;99.90;;;;;;5007631;28;20101;-80
2023/03/03 02:41:09;;;;;;;58.80;28.13;;;2.70;99.90;;;;;;5018055;28;20043;-80
2023/03/03 02:43:45;;;;;;;57.85;26.23;;;2.70;99.90;;;;;;5024453;28;20047;-80
2023/03/03 02:46:12;;;;;;;60.45;27.52;;;2.70;99.90;;;;;;5024987;28;20429;-81
2023/03/03 02:48:38;;;;;;;55.97;25.65;;;2.60;99.90;;;;;;5019302;28;20081;-80
2023/03/03 02:51:05;;;;;;;59.22;27.13;;;2.60;99.90;;;;;;5014439;28;20045;-80
2023/03/03 02:53:32;;;;;;;61.13;28.00;;;2.70;99.90;;;;;;5013761;28;20409;-80
2023/03/03 02:55:59;;;;;;;51.95;26.27;;;2.60;99.90;;;;;;5022663;28;20058;-80
2023/03/03 02:58:25;;;;;;;58.58;27.75;;;2.60;99.90;;;;;;5007436;28;20115;-80
2023/03/03 03:00:52;;;;;;;55.75;27.88;;;2.60;99.90;;;;;;5009975;28;20052;-80
2023/03/03 03:03:19;;;;;;;51.50;25.98;;;2.60;99.90;;;;;;5001376;28;20101;-81
2023/03/03 03:05:46;;;;;;;51.40;24.38;;;2.60;99.90;;;;;;5003863;28;20053;-80
2023/03/03 03:08:12;;;;;;;57.67;26.63;;;2.60;99.90;;;;;;4999336;28;20055;-80
2023/03/03 03:10:39;;;;;;;52.90;26.90;;;2.60;99.90;;;;;;5004734;28;20045;-80
2023/03/03 03:13:06;;;;;;;53.10;26.35;;;2.60;99.90;;;;;;5005858;28;20061;-79
2023/03/03 03:15:34;;;;;;;59.80;27.13;;;2.60;99.90;;;;;;5006144;28;20418;-80
2023/03/03 03:18:01;;;;;;;53.85;26.45;;;2.70;99.90;;;;;;5001668;28;20060;-80
2023/03/03 03:20:28;;;;;;;53.28;26.63;;;2.70;99.90;;;;;;5010167;28;20056;-80
2023/03/03 03:22:54;;;;;;;56.90;27.65;;;2.70;99.90;;;;;;5015815;28;20054;-79
2023/03/03 03:25:21;;;;;;;58.30;26.55;;;2.70;99.90;;;;;;5012486;28;20056;-80
2023/03/03 03:27:48;;;;;;;49.70;25.15;;;2.80;99.90;;;;;;5004713;28;20505;-80
2023/03/03 03:30:14;;;;;;;52.03;26.52;;;2.80;99.90;;;;;;5003948;28;20065;-80
2023/03/03 03:32:41;;;;;;;55.50;26.00;;;2.80;99.90;;;;;;5011014;28;20053;-80
2023/03/03 03:35:08;;;;;;;55.72;27.23;;;2.80;99.90;;;;;;5005368;28;20044;-80
2023/03/03 03:37:35;;;;;;;59.40;26.73;;;2.90;99.90;;;;;;5012487;28;20057;-79
2023/03/03 03:40:01;;;;;;;54.85;27.88;;;2.90;99.90;;;;;;5015562;28;20088;-78
2023/03/03 03:42:28;;;;;;;60.30;27.52;;;2.90;99.90;;;;;;5029014;28;20046;-79
2023/03/03 03:44:54;;;;;;;57.65;28.48;;;2.90;99.90;;;;;;5014755;28;20064;-80
2023/03/03 03:47:22;;;;;;;60.88;30.17;;;3.00;99.90;;;;;;5020154;28;20050;-80
2023/03/03 03:49:49;;;;;;;58.17;28.48;;;3.00;99.90;;;;;;5008187;28;20517;-80
2023/03/03 03:52:16;;;;;;;60.25;28.95;;;3.00;99.90;;;;;;5005642;28;20502;-80
2023/03/03 03:54:43;;;;;;;52.80;27.17;;;3.00;99.90;;;;;;5011675;28;20046;-80
2023/03/03 03:57:09;;;;;;;58.45;28.95;;;3.00;99.90;;;;;;5017138;28;20049;-79
2023/03/03 03:59:36;;;;;;;52.08;27.70;;;3.00;99.90;;;;;;5018002;28;20105;-79
2023/03/03 04:02:03;;;;;;;59.05;27.55;;;3.00;99.90;;;;;;5025913;28;20134;-77
2023/03/03 04:04:30;;;;;;;56.72;26.50;;;3.00;99.90;;;;;;5019690;28;20046;-79
2023/03/03 04:06:58;;;;;;;56.42;26.80;;;3.00;99.90;;;;;;5016492;28;20052;-78
2023/03/03 04:09:27;;;;;;;60.40;28.88;;;3.00;99.90;;;;;;5023280;28;20051;-78
2023/03/03 04:11:53;;;;;;;58.17;28.67;;;3.00;99.90;;;;;;5026780;28;20042;-79
2023/03/03 04:14:20;;;;;;;53.70;27.27;;;3.00;99.90;;;;;;5018758;28;20448;-80
2023/03/03 04:16:47;;;;;;;53.60;28.98;;;2.90;99.90;;;;;;5014629;28;20042;-80
2023/03/03 04:19:13;;;;;;;60.50;29.05;;;2.90;99.90;;;;;;5021743;28;20057;-79
2023/03/03 04:21:40;;;;;;;62.47;29.05;;;2.90;99.90;;;;;;5013227;28;20056;-80
2023/03/03 04:24:07;;;;;;;67.75;33.63;;;2.40;99.90;;;;;;5021074;28;20132;-80
2023/03/03 04:26:34;;;;;;;73.10;37.47;;;2.20;99.90;;;;;;5007010;28;20042;-78
2023/03/03 04:29:01;;;;;;;81.28;40.42;;;2.20;99.90;;;;;;5003771;28;20053;-80
2023/03/03 04:31:28;;;;;;;78.10;38.17;;;2.20;99.90;;;;;;5009403;28;20057;-80
2023/03/03 04:33:54;;;;;;;78.65;39.47;;;2.20;99.90;;;;;;5002277;28;20043;-79
2023/03/03 04:36:21;;;;;;;82.60;40.20;;;2.30;99.90;;;;;;5004048;28;20137;-78
2023/03/03 04:38:48;;;;;;;82.93;39.72;;;2.40;99.90;;;;;;5018968;28;20046;-78
2023/03/03 04:41:15;;;;;;;82.15;39.75;;;2.40;99.90;;;;;;5011240;28;20141;-79
2023/03/03 04:43:42;;;;;;;93.80;42.08;;;2.50;99.90;;;;;;4999026;28;20046;-79
2023/03/03 04:46:09;;;;;;;87.15;41.17;;;2.40;99.90;;;;;;5007124;28;20051;-78
2023/03/03 04:48:37;;;;;;;78.82;40.85;;;2.50;99.90;;;;;;5016708;28;20068;-79
2023/03/03 04:51:04;;;;;;;76.22;39.42;;;2.40;99.90;;;;;;5006475;28;20128;-79
2023/03/03 04:53:30;;;;;;;79.78;39.95;;;2.30;99.90;;;;;;5010544;28;20058;-79
2023/03/03 04:55:57;;;;;;;84.38;41.50;;;2.30;99.90;;;;;;5011021;28;20114;-79
2023/03/03 04:58:24;;;;;;;85.63;41.00;;;2.30;99.90;;;;;;5019863;28;20054;-79
2023/03/03 05:00:55;;;;;;;79.25;42.10;;;2.30;99.90;;;;;;5020462;28;20052;-79
2023/03/03 05:03:23;;;;;;;85.93;42.03;;;2.40;99.90;;;;;;5019938;28;20054;-79
2023/03/03 05:05:49;;;;;;;88.07;42.40;;;2.40;99.90;;;;;;5009496;28;20072;-79
2023/03/03 05:08:16;;;;;;;85.18;41.47;;;2.40;99.90;;;;;;5013276;28;20053;-78
2023/03/03 05:10:43;;;;;;;87.22;41.60;;;2.50;99.90;;;;;;5008931;28;20055;-79
2023/03/03 05:13:10;;;;;;;79.18;41.47;;;2.50;99.90;;;;;;5028200;28;20074;-79
2023/03/03 05:15:36;;;;;;;82.57;42.95;;;2.50;99.90;;;;;;5007623;28;20046;-78
2023/03/03 05:18:04;;;;;;;84.32;43.45;;;2.50;99.90;;;;;;5007545;28;20808;-79
2023/03/03 05:20:30;;;;;;;91.53;42.40;;;2.50;99.90;;;;;;5018658;28;20046;-78
2023/03/03 05:23:00;;;;;;;82.45;41.03;;;2.60;99.90;;;;;;5010348;28;20502;-79
2023/03/03 05:25:27;;;;;;;86.90;41.97;;;2.60;99.90;;;;;;5018291;28;20136;-79
2023/03/03 05:27:53;;;;;;;84.07;41.10;;;2.60;99.90;;;;;;5016149;28;20042;-78
2023/03/03 05:30:20;;;;;;;73.78;38.20;;;2.60;99.90;;;;;;5007886;28;20051;-79
2023/03/03 05:32:47;;;;;;;81.95;40.47;;;2.60;99.90;;;;;;5012023;28;20069;-79
2023/03/03 05:35:14;;;;;;;76.18;38.17;;;2.60;99.90;;;;;;5015533;28;20049;-78
2023/03/03 05:37:45;;;;;;;74.00;39.28;;;2.60;99.90;;;;;;5012868;28;20132;-79
2023/03/03 05:40:13;;;;;;;72.28;38.10;;;2.70;99.90;;;;;;5014231;28;20069;-79
2023/03/03 05:42:40;;;;;;;80.25;38.92;;;2.70;99.90;;;;;;5021690;28;20413;-79
2023/03/03 05:45:07;;;;;;;72.95;37.58;;;2.70;99.90;;;;;;5012935;28;20061;-78
2023/03/03 05:47:34;;;;;;;73.75;37.80;;;2.70;99.90;;;;;;5024503;28;20164;-78
2023/03/03 05:50:00;;;;;;;82.13;39.85;;;2.70;99.90;;;;;;5026775;28;20046;-79
2023/03/03 05:52:27;;;;;;;82.53;40.22;;;2.60;99.90;;;;;;5013811;28;20042;-78
2023/03/03 05:54:54;;;;;;;76.53;37.78;;;2.60;99.90;;;;;;5024952;28;20065;-79
2023/03/03 05:57:20;;;;;;;85.85;39.15;;;2.60;99.90;;;;;;5011837;28;20054;-79
2023/03/03 05:59:47;;;;;;;77.50;39.45;;;2.60;99.90;;;;;;5007645;28;20045;-79
2023/03/03 06:02:14;;;;;;;75.85;38.70;;;2.60;99.90;;;;;;5011058;28;20060;-79
2023/03/03 06:04:40;;;;;;;74.93;39.42;;;2.70;99.90;;;;;;5007258;28;20053;-79
2023/03/03 06:07:08;;;;;;;71.65;38.40;;;2.70;99.90;;;;;;5005061;28;20057;-79
2023/03/03 06:09:34;;;;;;;77.25;38.60;;;2.70;99.90;;;;;;5016868;28;20045;-81
2023/03/03 06:12:01;;;;;;;80.72;40.92;;;2.70;99.90;;;;;;5013362;28;20054;-78
2023/03/03 06:14:28;;;;;;;80.07;39.65;;;2.80;99.90;;;;;;5009773;28;20044;-79
2023/03/03 06:16:56;;;;;;;74.07;37.40;;;2.80;99.90;;;;;;5009869;28;20078;-80
2023/03/03 06:19:24;;;;;;;85.55;42.83;;;2.80;99.90;;;;;;5010328;28;20046;-79
2023/03/03 06:21:50;;;;;;;72.45;39.83;;;2.80;99.90;;;;;;5013294;28;20489;-79
2023/03/03 06:24:17;;;;;;;70.72;37.40;;;2.80;99.90;;;;;;5020209;28;20058;-79
2023/03/03 06:26:44;;;;;;;78.68;36.80;;;2.90;99.90;;;;;;5005408;28;20494;-78
2023/03/03 06:29:10;;;;;;;68.75;36.53;;;2.90;99.90;;;;;;5012842;28;20110;-79
2023/03/03 06:31:38;;;;;;;73.38;36.33;;;2.90;99.90;;;;;;5022590;28;20469;-79
2023/03/03 06:34:05;;;;;;;75.60;35.90;;;2.90;99.90;;;;;;5007918;28;20130;-79
2023/03/03 06:36:31;;;;;;;75.07;36.83;;;2.90;99.90;;;;;;5014262;28;20093;-79
2023/03/03 06:38:58;;;;;;;71.63;36.10;;;3.00;99.90;;;;;;5007491;28;20089;-78
2023/03/03 06:41:24;;;;;;;74.20;35.15;;;3.00;99.90;;;;;;5014886;28;20049;-78
2023/03/03 06:43:51;;;;;;;72.88;37.70;;;3.00;99.90;;;;;;5009632;28;20054;-79
2023/03/03 06:46:18;;;;;;;69.18;37.10;;;3.10;99.90;;;;;;5004394;28;20054;-80
2023/03/03 06:48:44;;;;;;;75.78;37.63;;;3.10;99.90;;;;;;5010767;28;20042;-78
2023/03/03 06:51:30;;;;;;;74.60;36.65;;;3.10;99.90;;;;;;5011077;28;20050;-77
2023/03/03 06:54:01;;;;;;;74.97;36.83;;;3.10;99.90;;;;;;5010902;28;20046;-79
2023/03/03 06:56:29;;;;;;;81.45;37.15;;;3.20;99.90;;;;;;5020912;28;20076;-79
2023/03/03 06:58:59;;;;;;;81.82;39.80;;;3.20;99.90;;;;;;5008160;28;20046;-78
2023/03/03 07:01:27;;;;;;;77.10;39.22;;;3.20;99.90;;;;;;5007177;28;20601;-79
2023/03/03 07:03:53;;;;;;;76.43;36.50;;;3.20;99.90;;;;;;5027648;28;20049;-78
2023/03/03 07:06:24;;;;;;;79.65;38.08;;;3.30;99.90;;;;;;5019581;28;20061;-78
2023/03/03 07:08:51;;;;;;;;;;;3.30;99.90;;;;;;5011430;28;20394;-79
2023/03/03 07:11:21;;;;;;;75.97;36.22;;;3.40;99.90;;;;;;5020766;28;19921;-78
2023/03/03 07:13:53;;;;;;;73.97;37.72;;;3.40;99.90;;;;;;5010972;28;20046;-79
2023/03/03 07:16:25;;;;;;;78.20;37.30;;;3.40;99.90;;;;;;5012028;28;20049;-78
2023/03/03 07:18:57;;;;;;;81.28;39.00;;;3.50;99.90;;;;;;5007506;28;20037;-79
2023/03/03 07:21:32;;;;;;;77.68;40.70;;;3.50;99.90;;;;;;5012193;28;20113;-79
2023/03/03 07:24:04;;;;;;;71.50;38.63;;;3.50;99.90;;;;;;5004505;28;20114;-80
2023/03/03 07:26:31;;;;;;;70.00;37.60;;;3.60;99.90;;;;;;5010046;28;20053;-80
2023/03/03 07:29:29;;;;;;;74.78;39.75;;;3.70;99.90;;;;;;5002255;28;20052;-80
2023/03/03 07:31:58;;;;;;;73.78;36.47;;;3.70;99.90;;;;;;5008097;28;20057;-80
2023/03/03 07:34:37;;;;;;;80.22;41.50;;;3.80;99.90;;;;;;5002096;28;20488;-79
2023/03/03 07:37:37;;;;;;;81.88;40.78;;;3.80;99.90;;;;;;5021485;28;20085;-80
2023/03/03 07:40:32;;;;;;;79.72;40.95;;;3.90;99.90;;;;;;5005647;28;20092;-80
2023/03/03 07:42:59;;;;;;;75.47;40.97;;;3.90;99.90;;;;;;5007397;28;20137;-79
2023/03/03 07:45:29;;;;;;;85.95;44.83;;;4.00;99.90;;;;;;5021446;28;20060;-80
2023/03/03 07:48:04;;;;;;;;;;;4.00;99.90;;;;;;5004238;28;20538;-79
2023/03/03 07:50:33;;;;;;;81.22;41.92;;;4.00;99.90;;;;;;5009304;28;19921;-79
2023/03/03 07:53:00;;;;;;;82.88;43.33;;;4.10;99.90;;;;;;5016659;28;20042;-80
2023/03/03 07:55:35;;;;;;;83.72;44.35;;;4.10;99.90;;;;;;5015546;28;20095;-79
2023/03/03 07:58:26;;;;;;;79.97;42.53;;;4.20;99.90;;;;;;5007776;28;20421;-80
2023/03/03 08:01:30;;;;;;;87.28;43.33;;;4.20;99.90;;;;;;4999773;28;20053;-79
2023/03/03 08:03:57;;;;;;;83.88;42.97;;;4.30;99.90;;;;;;5009401;28;20065;-80
2023/03/03 08:06:57;;;;;;;80.85;41.45;;;4.30;99.90;;;;;;5015089;28;20046;-79
2023/03/03 08:09:28;;;;;;;77.25;41.60;;;4.40;99.90;;;;;;4975562;28;20126;-80
2023/03/03 08:12:08;;;;;;;78.30;40.72;;;4.50;99.90;;;;;;5000238;28;20046;-80
2023/03/03 08:14:37;;;;;;;75.27;40.70;;;4.50;99.90;;;;;;5006584;28;20045;-80
2023/03/03 08:17:16;;;;;;;76.50;40.45;;;4.60;99.90;;;;;;4999604;28;20295;-80
2023/03/03 08:19:42;;;;;;;74.60;40.00;;;4.60;99.90;;;;;;5004577;28;20061;-80
2023/03/03 08:22:17;;;;;;;73.28;38.80;;;4.70;99.90;;;;;;4999965;28;20086;-80
2023/03/03 08:24:43;;;;;;;76.63;41.58;;;4.70;99.90;;;;;;5004235;28;20046;-80
2023/03/03 08:27:10;;;;;;;74.47;39.78;;;4.80;99.90;;;;;;4999147;28;20060;-80
2023/03/03 08:29:37;;;;;;;76.03;40.53;;;4.90;99.90;;;;;;5017610;28;20577;-80
2023/03/03 08:32:04;;;;;;;73.40;40.33;;;4.90;99.90;;;;;;5014626;28;20045;-80
2023/03/03 08:34:31;;;;;;;78.22;40.47;;;5.00;99.90;;;;;;5010439;28;20039;-79
2023/03/03 08:36:57;;;;;;;68.57;39.75;;;5.00;99.90;;;;;;5009386;28;20050;-80
2023/03/03 08:39:24;;;;;;;75.07;40.10;;;5.10;99.90;;;;;;5003297;28;20155;-80
2023/03/03 08:41:51;;;;;;;74.93;41.42;;;5.20;99.90;;;;;;5010556;28;20049;-79
2023/03/03 08:44:19;;;;;;;76.53;40.72;;;5.20;99.90;;;;;;5001072;28;20093;-80
2023/03/03 08:46:46;;;;;;;71.28;39.38;;;5.30;99.90;;;;;;5009093;28;20045;-80
2023/03/03 08:49:13;;;;;;;78.00;42.05;;;5.40;99.90;;;;;;4999270;28;20056;-80
2023/03/03 08:51:40;;;;;;;78.30;40.58;;;5.40;99.90;;;;;;5009839;28;20037;-80
2023/03/03 08:54:07;;;;;;;75.22;39.75;;;5.50;99.90;;;;;;5016065;28;20056;-80
2023/03/03 08:56:34;;;;;;;74.75;39.33;;;5.50;99.90;;;;;;5009756;28;20042;-80
2023/03/03 08:59:00;;;;;;;72.22;39.85;;;5.60;99.90;;;;;;5016716;28;20054;-80
2023/03/03 09:01:30;;;;;;;81.25;41.38;;;5.60;99.90;;;;;;5004994;28;20049;-80
2023/03/03 09:03:57;;;;;;;78.10;42.67;;;5.40;99.90;;;;;;4998243;28;20050;-80
2023/03/03 09:06:24;;;;;;;79.65;42.33;;;5.40;99.90;;;;;;5004627;28;20064;-79
2023/03/03 09:08:51;;;;;;;78.32;41.60;;;5.50;99.90;;;;;;4999014;28;20046;-80
2023/03/03 09:11:26;;;;;;;72.05;39.45;;;5.60;99.90;;;;;;5004541;28;20056;-80
2023/03/03 09:14:12;;;;;;;70.43;39.63;;;5.60;99.90;;;;;;5015390;28;20039;-80
2023/03/03 09:16:45;;;;;;;81.75;41.33;;;5.60;99.90;;;;;;5003601;28;20098;-80
2023/03/03 09:19:21;;;;;;;75.53;40.72;;;5.70;99.90;;;;;;5007510;28;20038;-80
2023/03/03 09:21:50;;;;;;;75.72;40.47;;;5.80;99.90;;;;;;5003450;28;20470;-80
2023/03/03 09:24:35;;;;;;;75.63;39.90;;;5.80;99.90;;;;;;5010141;28;20478;-80
2023/03/03 09:27:17;;;;;;;75.13;39.97;;;5.90;99.90;;;;;;5001045;28;20054;-79
2023/03/03 09:29:44;;;;;;;72.90;39.67;;;5.90;99.90;;;;;;5007441;28;20512;-80
2023/03/03 09:32:19;;;;;;;69.80;40.10;;;5.90;99.90;;;;;;5012953;28;20097;-80
2023/03/03 09:34:46;;;;;;;73.18;39.42;;;6.00;99.90;;;;;;5011751;28;20041;-80
2023/03/03 09:37:23;;;;;;;79.55;40.13;;;5.90;99.90;;;;;;5010888;28;20056;-79
2023/03/03 09:39:55;;;;;;;65.70;38.17;;;5.80;99.90;;;;;;5033568;28;20040;-78
2023/03/03 09:42:55;;;;;;;74.53;41.30;;;5.90;99.90;;;;;;5028991;28;20114;-77
2023/03/03 09:45:30;;;;;;;68.93;35.47;;;5.90;99.90;;;;;;5038563;28;20038;-79
2023/03/03 09:48:24;;;;;;;67.10;36.33;;;5.80;99.90;;;;;;5026395;28;20560;-81
2023/03/03 09:51:07;;;;;;;67.15;35.83;;;5.80;99.90;;;;;;5006683;28;20050;-80
2023/03/03 09:53:59;;;;;;;75.90;39.17;;;5.60;99.90;;;;;;5006059;28;20061;-80
2023/03/03 09:56:45;;;;;;;67.80;36.85;;;5.60;99.90;;;;;;5007998;28;20047;-80
2023/03/03 09:59:15;;;;;;;77.57;41.45;;;5.60;99.90;;;;;;5010615;28;20422;-79
2023/03/03 10:02:08;;;;;;;70.50;39.22;;;5.70;99.90;;;;;;5023740;28;20402;-80
2023/03/03 10:05:14;;;;;;;73.00;39.25;;;5.70;99.90;;;;;;5014967;28;20048;-80
2023/03/03 10:08:03;;;;;;;74.80;38.67;;;5.80;99.90;;;;;;5012309;28;20061;-80
2023/03/03 10:10:48;;;;;;;76.32;39.88;;;5.80;99.90;;;;;;5010862;28;20046;-81
2023/03/03 10:13:29;;;;;;;75.28;39.15;;;5.80;99.90;;;;;;5017941;28;20109;-80
2023/03/03 10:16:21;;;;;;;79.43;39.53;;;5.80;99.90;;;;;;5020664;28;20070;-80
2023/03/03 10:18:59;;;;;;;73.28;38.97;;;5.70;99.90;;;;;;5006233;28;20076;-80
2023/03/03 10:21:29;;;;;;;77.60;42.08;;;5.70;99.90;;;;;;5020408;28;20053;-79
2023/03/03 10:24:06;;;;;;;74.78;39.33;;;5.80;99.90;;;;;;5013435;28;20073;-80
2023/03/03 10:27:00;;;;;;;69.05;38.40;;;5.70;99.90;;;;;;5016963;28;20049;-80
2023/03/03 10:29:55;;;;;;;75.43;37.72;;;5.80;99.90;;;;;;5006277;28;20045;-80
2023/03/03 10:32:39;;;;;;;66.30;37.75;;;5.90;99.90;;;;;;5022477;28;20124;-79
2023/03/03 10:35:29;;;;;;;74.90;38.85;;;6.00;99.90;;;;;;5005602;28;20142;-79
2023/03/03 10:38:26;;;;;;;69.28;38.97;;;6.10;99.90;;;;;;5008329;28;20074;-81
2023/03/03 10:41:17;;;;;;;71.53;38.55;;;6.00;99.90;;;;;;5014408;28;20057;-80
2023/03/03 10:44:05;;;;;;;66.50;35.83;;;6.10;99.90;;;;;;5007127;28;20054;-79
2023/03/03 10:46:56;;;;;;;69.18;37.42;;;6.10;99.90;;;;;;5007248;28;20042;-80
2023/03/03 10:49:38;;;;;;;68.65;36.45;;;6.20;99.90;;;;;;5010808;28;20086;-80
2023/03/03 10:52:56;;;;;;;75.90;37.25;;;6.20;99.90;;;;;;5007707;28;20042;-80
2023/03/03 10:55:33;;;;;;;62.25;35.65;;;6.20;99.90;;;;;;4985735;28;20050;-80
2023/03/03 10:58:22;;;;;;;65.40;35.33;;;6.20;99.90;;;;;;5008883;28;20050;-79
2023/03/03 11:00:55;;;;;;;71.60;35.33;;;6.20;99.90;;;;;;5001685;28;20089;-81
2023/03/03 11:03:59;;;;;;;62.58;35.65;;;6.30;99.90;;;;;;5008840;28;20082;-80
2023/03/03 11:06:37;;;;;;;61.65;34.47;;;6.30;99.90;;;;;;5003243;28;20137;-79
2023/03/03 11:09:36;;;;;;;62.53;33.78;;;6.20;99.90;;;;;;5006581;28;20042;-80
2023/03/03 11:12:12;;;;;;;59.42;32.85;;;6.30;99.90;;;;;;5005643;28;20418;-78
2023/03/03 11:15:01;;;;;;;64.53;35.13;;;6.30;99.90;;;;;;5008250;28;20548;-79
2023/03/03 11:18:05;;;;;;;66.93;35.67;;;6.10;99.90;;;;;;5001359;28;20060;-79
2023/03/03 11:20:38;;;;;;;62.83;33.80;;;6.20;99.90;;;;;;5006881;28;20106;-79
2023/03/03 11:23:38;;;;;;;65.28;35.78;;;6.10;99.90;;;;;;5000111;28;20054;-79
2023/03/03 11:26:23;;;;;;;57.25;32.85;;;6.00;99.90;;;;;;5005714;28;20621;-79
2023/03/03 11:29:11;;;;;;;61.72;32.75;;;6.10;99.90;;;;;;5007073;28;20045;-78
2023/03/03 11:31:45;;;;;;;65.50;34.20;;;6.30;99.90;;;;;;5003940;28;20125;-80
2023/03/03 11:34:50;;;;;;;62.72;32.25;;;6.40;99.90;;;;;;5019426;28;20046;-79
2023/03/03 11:37:28;;;;;;;64.22;34.45;;;6.60;99.90;;;;;;5028116;28;20046;-80
2023/03/03 11:40:01;;;;;;;58.25;33.63;;;6.60;99.90;;;;;;5003011;28;20042;-80
2023/03/03 11:42:56;;;;;;;61.65;34.80;;;6.70;99.90;;;;;;5010208;28;20690;-79
2023/03/03 11:45:38;;;;;;;57.78;32.65;;;6.80;99.90;;;;;;5017467;28;20054;-79
2023/03/03 11:48:13;;;;;;;63.83;34.30;;;6.90;99.90;;;;;;5010564;28;20046;-80
2023/03/03 11:50:55;;;;;;;63.40;33.38;;;7.00;99.90;;;;;;5023976;28;20049;-80
2023/03/03 11:53:39;;;;;;;65.38;31.45;;;7.10;99.90;;;;;;5021650;28;20069;-80
2023/03/03 11:56:21;;;;;;;58.92;33.50;;;7.20;99.90;;;;;;5011132;28;20502;-80
2023/03/03 11:59:20;;;;;;;56.40;32.60;;;7.30;99.90;;;;;;5021569;28;20080;-80
2023/03/03 12:01:54;;;;;;;58.13;32.97;;;7.30;99.90;;;;;;5019642;28;20045;-80
2023/03/03 12:04:30;;;;;;;62.58;32.97;;;7.30;99.90;;;;;;5001515;28;20060;-80
2023/03/03 12:07:30;;;;;;;63.42;33.72;;;7.20;99.90;;;;;;5005179;28;20094;-79
2023/03/03 12:10:16;;;;;;;65.30;33.80;;;7.20;99.90;;;;;;5027784;28;20072;-80
2023/03/03 12:12:48;;;;;;;65.63;33.70;;;7.20;99.90;;;;;;5007285;28;20046;-80
2023/03/03 12:15:27;;;;;;;62.83;33.63;;;7.30;99.90;;;;;;5000798;28;20129;-80
2023/03/03 12:18:12;;;;;;;61.67;34.57;;;7.30;99.90;;;;;;5009702;28;20047;-79
2023/03/03 12:20:59;;;;;;;63.72;35.08;;;7.30;99.90;;;;;;5012524;28;20050;-80
2023/03/03 12:23:57;;;;;;;62.22;34.67;;;7.30;99.90;;;;;;5008298;28;20056;-80
2023/03/03 12:26:33;;;;;;;63.42;35.42;;;7.40;99.90;;;;;;5012641;28;20050;-79
2023/03/03 12:29:29;;;;;;;64.10;35.13;;;7.50;99.90;;;;;;5021975;28;20046;-80
2023/03/03 12:32:12;;;;;;;64.15;33.95;;;7.50;99.90;;;;;;4984980;28;20042;-80
2023/03/03 12:34:58;;;;;;;60.58;32.38;;;7.60;99.90;;;;;;5008150;28;20046;-80
2023/03/03 12:37:46;;;;;;;65.30;33.97;;;7.50;99.90;;;;;;5003638;28;20050;-79
2023/03/03 12:40:25;;;;;;;62.40;33.60;;;7.60;99.90;;;;;;5008357;28;20600;-80
2023/03/03 12:43:05;;;;;;;58.05;32.78;;;7.60;99.90;;;;;;5015189;28;20501;-79
2023/03/03 12:45:42;;;;;;;58.35;32.67;;;7.60;99.90;;;;;;5005488;28;20039;-80
2023/03/03 12:48:28;;;;;;;65.20;34.55;;;7.70;99.90;;;;;;4998302;28;20073;-79
2023/03/03 12:51:10;;;;;;;59.55;33.45;;;7.90;99.90;;;;;;5005114;28;20050;-81
2023/03/03 12:53:43;;;;;;;58.28;33.67;;;8.10;99.90;;;;;;5008275;28;20513;-80
2023/03/03 12:56:33;;;;;;;61.97;33.97;;;8.00;99.90;;;;;;5003883;28;20042;-81
2023/03/03 12:59:12;;;;;;;69.50;35.20;;;8.10;99.90;;;;;;5003655;28;20054;-80
2023/03/03 13:01:55;;;;;;;67.57;35.78;;;7.90;99.90;;;;;;5002922;28;20050;-80
2023/03/03 13:04:40;;;;;;;64.80;35.03;;;7.80;99.90;;;;;;5013548;28;20080;-80
2023/03/03 13:07:22;;;;;;;57.03;32.50;;;7.70;99.90;;;;;;5010293;28;20084;-80
2023/03/03 13:10:03;;;;;;;60.60;34.63;;;7.60;99.90;;;;;;5006707;28;20042;-81
2023/03/03 13:12:30;;;;;;;63.03;34.65;;;7.50;99.90;;;;;;5010880;28;20105;-80